createdAt,value
2018-04-27T00:02:58.309Z,45.30
2018-04-27T00:06:02.124Z,45.10
2018-04-27T00:09:06.673Z,45.20
2018-04-27T00:12:10.458Z,45.20
2018-04-27T00:15:14.363Z,45.10
2018-04-27T00:18:18.164Z,45.00
2018-04-27T00:21:22.714Z,45.10
2018-04-27T00:24:27.259Z,45.00
2018-04-27T00:27:31.781Z,45.00
2018-04-27T00:30:36.334Z,45.00
2018-04-27T00:33:40.881Z,45.20
2018-04-27T00:36:45.400Z,45.20
2018-04-27T00:39:49.212Z,45.10
2018-04-27T00:42:52.993Z,45.30
2018-04-27T00:45:56.799Z,45.30
2018-04-27T00:49:00.608Z,45.30
2018-04-27T00:52:05.171Z,45.30
2018-04-27T00:55:08.986Z,45.20
2018-04-27T00:58:12.788Z,44.90
2018-04-27T01:01:16.598Z,44.80
2018-04-27T01:04:20.414Z,44.80
2018-04-27T01:07:24.199Z,44.70
2018-04-27T01:10:28.012Z,44.80
2018-04-27T01:13:31.802Z,44.80
2018-04-27T01:16:36.378Z,45.10
2018-04-27T01:19:40.188Z,45.00
2018-04-27T01:22:44.708Z,44.90
2018-04-27T01:25:48.516Z,44.80
2018-04-27T01:28:52.297Z,44.70
2018-04-27T01:31:56.102Z,44.70
2018-04-27T01:35:00.647Z,45.10
2018-04-27T01:38:05.237Z,45.30
2018-04-27T01:41:09.047Z,45.20
2018-04-27T01:44:12.864Z,45.20
2018-04-27T01:47:16.647Z,45.20
2018-04-27T01:50:21.207Z,45.30
2018-04-27T01:53:24.981Z,45.30
2018-04-27T01:56:28.799Z,45.30
2018-04-27T01:59:32.606Z,45.30
2018-04-27T02:02:36.403Z,45.20
2018-04-27T02:05:40.212Z,44.80
2018-04-27T02:08:44.734Z,44.90
2018-04-27T02:11:48.536Z,44.90
2018-04-27T02:14:52.348Z,45.00
2018-04-27T02:17:56.131Z,44.90
2018-04-27T02:21:00.673Z,44.70
2018-04-27T02:24:05.211Z,44.60
2018-04-27T02:27:09.762Z,44.70
2018-04-27T02:30:14.305Z,44.80
2018-04-27T02:33:18.129Z,44.70
2018-04-27T02:36:21.934Z,44.80
2018-04-27T02:39:26.456Z,44.80
2018-04-27T02:42:31.751Z,44.90
2018-04-27T02:45:35.577Z,44.90
2018-04-27T02:48:39.360Z,45.00
2018-04-27T02:51:43.171Z,45.00
2018-04-27T02:54:46.957Z,45.00
2018-04-27T02:57:50.762Z,45.20
2018-04-27T03:00:55.558Z,45.30
2018-04-27T03:03:59.354Z,45.30
2018-04-27T03:07:03.243Z,45.30
2018-04-27T03:10:07.010Z,45.40
2018-04-27T03:13:10.793Z,45.30
2018-04-27T03:16:15.340Z,45.30
2018-04-27T03:19:19.876Z,45.60
2018-04-27T03:22:26.810Z,45.60
2018-04-27T03:25:30.681Z,45.50
2018-04-27T03:28:34.498Z,45.50
2018-04-27T03:31:38.328Z,45.40
2018-04-27T03:34:47.675Z,45.20
2018-04-27T03:37:51.484Z,44.90
2018-04-27T03:40:55.286Z,44.80
2018-04-27T03:43:59.063Z,45.20
2018-04-27T03:47:02.868Z,45.10
2018-04-27T03:50:06.665Z,45.10
2018-04-27T03:53:10.478Z,44.90
2018-04-27T03:56:14.303Z,44.80
2018-04-27T03:59:46.534Z,44.60
2018-04-27T04:06:28.032Z,44.80
2018-04-27T04:09:31.853Z,44.70
2018-04-27T04:12:35.692Z,45.50
2018-04-27T04:15:39.504Z,45.50
2018-04-27T04:18:43.349Z,45.30
2018-04-27T04:21:47.183Z,45.20
2018-04-27T04:24:50.991Z,45.30
2018-04-27T04:27:58.343Z,45.70
2018-04-27T04:31:02.159Z,45.80
2018-04-27T04:34:06.013Z,45.70
2018-04-27T04:37:09.827Z,45.40
2018-04-27T04:40:13.622Z,45.30
2018-04-27T04:43:17.439Z,45.30
2018-04-27T04:46:21.256Z,45.30
2018-04-27T04:49:25.043Z,45.30
2018-04-27T04:52:29.687Z,45.40
2018-04-27T04:55:33.430Z,45.30
2018-04-27T04:58:37.256Z,45.40
2018-04-27T05:01:41.078Z,45.50
2018-04-27T05:04:44.868Z,45.50
2018-04-27T05:07:48.678Z,45.30
2018-04-27T05:10:52.680Z,44.80
2018-04-27T05:13:56.455Z,45.40
2018-04-27T05:17:01.006Z,45.40
2018-04-27T05:20:04.785Z,45.40
2018-04-27T05:23:08.609Z,45.30
2018-04-27T05:26:12.401Z,45.50
2018-04-27T05:29:16.219Z,45.40
2018-04-27T05:32:20.029Z,45.40
2018-04-27T05:35:23.831Z,45.50
2018-04-27T05:38:28.411Z,45.50
2018-04-27T05:41:32.218Z,45.40
2018-04-27T05:44:36.609Z,45.50
2018-04-27T05:47:40.428Z,45.40
2018-04-27T05:50:44.235Z,45.50
2018-04-27T05:53:48.087Z,45.50
2018-04-27T05:56:51.926Z,45.50
2018-04-27T06:00:03.771Z,45.50
2018-04-27T06:03:07.620Z,45.50
2018-04-27T06:06:11.414Z,45.50
2018-04-27T06:09:16.064Z,45.50
2018-04-27T06:12:19.872Z,45.30
2018-04-27T06:15:24.389Z,45.60
2018-04-27T06:18:28.198Z,45.60
2018-04-27T06:21:31.981Z,45.20
2018-04-27T06:24:35.801Z,46.00
2018-04-27T06:27:39.616Z,46.40
2018-04-27T06:30:44.137Z,46.80
2018-04-27T06:33:47.990Z,46.70
2018-04-27T06:36:51.915Z,46.60
2018-04-27T06:39:55.842Z,46.80
2018-04-27T06:43:10.301Z,47.20
2018-04-27T06:46:15.015Z,46.70
2018-04-27T06:49:18.866Z,47.30
2018-04-27T06:52:24.461Z,46.80
2018-04-27T06:55:29.751Z,47.40
2018-04-27T06:58:50.762Z,47.20
2018-04-27T07:01:56.426Z,47.50
2018-04-27T07:05:00.343Z,47.00
2018-04-27T07:08:04.111Z,47.00
2018-04-27T07:11:07.913Z,47.20
2018-04-27T07:14:11.743Z,47.00
2018-04-27T07:17:15.542Z,46.80
2018-04-27T07:20:19.979Z,46.60
2018-04-27T07:23:23.802Z,47.30
2018-04-27T07:26:27.616Z,46.30
2018-04-27T07:29:32.948Z,47.00
2018-04-27T07:32:36.804Z,46.30
2018-04-27T07:35:41.786Z,46.70
2018-04-27T07:38:47.341Z,46.60
2018-04-27T07:41:51.165Z,46.50
2018-04-27T07:44:55.037Z,46.70
2018-04-27T07:47:59.988Z,46.60
2018-04-27T07:51:03.815Z,46.60
2018-04-27T07:54:07.706Z,46.50
2018-04-27T07:57:11.559Z,46.50
2018-04-27T08:00:15.526Z,46.50
2018-04-27T08:03:19.443Z,46.50
2018-04-27T08:06:24.032Z,46.40
2018-04-27T08:09:27.924Z,46.30
2018-04-27T08:12:31.751Z,46.40
2018-04-27T08:15:36.550Z,46.40
2018-04-27T08:18:40.551Z,46.30
2018-04-27T08:21:44.359Z,46.30
2018-04-27T08:24:48.226Z,46.30
2018-04-27T08:27:52.677Z,46.30
2018-04-27T08:30:56.554Z,46.30
2018-04-27T08:34:00.376Z,46.20
2018-04-27T08:37:04.193Z,46.10
2018-04-27T08:40:08.036Z,46.10
2018-04-27T08:43:24.158Z,46.00
2018-04-27T08:46:30.725Z,46.00
2018-04-27T08:49:34.744Z,45.90
2018-04-27T08:52:38.584Z,45.80
2018-04-27T08:55:42.444Z,45.80
2018-04-27T08:58:46.304Z,45.80
2018-04-27T09:01:53.801Z,45.80
2018-04-27T09:04:58.925Z,45.70
2018-04-27T09:08:02.742Z,45.80
2018-04-27T09:11:06.580Z,45.70
2018-04-27T09:14:10.381Z,45.70
2018-04-27T09:17:14.160Z,45.70
2018-04-27T09:20:18.715Z,45.60
2018-04-27T09:23:23.296Z,45.50
2018-04-27T09:26:27.141Z,45.40
2018-04-27T09:29:31.052Z,45.50
2018-04-27T09:32:34.888Z,45.20
2018-04-27T09:35:58.899Z,45.30
2018-04-27T09:39:04.245Z,45.20
2018-04-27T09:42:08.070Z,45.20
2018-04-27T09:45:11.954Z,45.00
2018-04-27T09:48:15.805Z,45.10
2018-04-27T09:51:19.654Z,45.20
2018-04-27T09:54:23.515Z,45.10
2018-04-27T09:57:28.125Z,44.80
2018-04-27T10:00:31.990Z,44.70
2018-04-27T10:03:35.828Z,44.80
2018-04-27T10:06:39.952Z,44.80
2018-04-27T10:09:43.810Z,44.70
2018-04-27T10:12:47.639Z,44.60
2018-04-27T10:15:51.629Z,44.60
2018-04-27T10:18:55.746Z,44.50
2018-04-27T10:22:00.389Z,44.60
2018-04-27T10:25:05.205Z,44.50
2018-04-27T10:28:09.208Z,44.40
2018-04-27T10:31:13.083Z,44.30
2018-04-27T10:34:17.269Z,44.10
2018-04-27T10:37:21.099Z,44.30
2018-04-27T10:40:24.957Z,44.40
2018-04-27T10:43:28.806Z,44.30
2018-04-27T10:46:33.441Z,44.20
2018-04-27T10:49:38.888Z,43.60
2018-04-27T10:52:42.686Z,44.10
2018-04-27T10:55:46.531Z,44.00
2018-04-27T10:58:50.394Z,44.50
2018-04-27T11:01:54.185Z,43.60
2018-04-27T11:04:57.997Z,43.50
2018-04-27T11:08:01.792Z,43.50
2018-04-27T11:11:05.699Z,43.50
2018-04-27T11:14:09.545Z,43.50
2018-04-27T11:17:13.362Z,43.50
2018-04-27T11:20:17.235Z,43.50
2018-04-27T11:23:21.011Z,43.50
2018-04-27T11:26:26.079Z,43.50
2018-04-27T11:29:29.906Z,43.50
2018-04-27T11:32:33.733Z,43.50
2018-04-27T11:35:37.619Z,44.20
2018-04-27T11:38:41.431Z,43.50
2018-04-27T11:41:45.979Z,43.70
2018-04-27T11:44:50.627Z,43.80
2018-04-27T11:47:54.540Z,43.80
2018-04-27T11:50:59.111Z,43.90
2018-04-27T11:57:32.341Z,43.90
2018-04-27T12:00:36.225Z,44.40
2018-04-27T12:03:40.145Z,44.10
2018-04-27T12:06:44.835Z,44.20
2018-04-27T12:09:49.503Z,44.00
2018-04-27T12:12:53.543Z,43.90
2018-04-27T12:15:57.461Z,44.00
2018-04-27T12:19:01.312Z,43.70
2018-04-27T12:22:05.207Z,44.00
2018-04-27T12:25:09.152Z,44.00
2018-04-27T12:28:13.021Z,43.90
2018-04-27T12:31:17.026Z,44.00
2018-04-27T12:34:21.738Z,44.30
2018-04-27T12:37:25.664Z,44.20
2018-04-27T12:40:29.547Z,44.30
2018-04-27T12:43:34.897Z,44.20
2018-04-27T12:46:39.574Z,43.70
2018-04-27T12:49:44.168Z,44.80
2018-04-27T12:52:48.061Z,44.10
2018-04-27T12:55:51.957Z,44.50
2018-04-27T12:58:55.806Z,44.50
2018-04-27T13:02:00.432Z,44.60
2018-04-27T13:05:05.010Z,44.70
2018-04-27T13:08:08.921Z,44.60
2018-04-27T13:11:12.738Z,44.80
2018-04-27T13:14:17.281Z,45.00
2018-04-27T13:17:21.829Z,45.00
2018-04-27T13:20:25.613Z,45.00
2018-04-27T13:23:29.426Z,45.10
2018-04-27T13:26:34.023Z,45.20
2018-04-27T13:29:37.747Z,45.30
2018-04-27T13:32:41.554Z,45.30
2018-04-27T13:35:46.105Z,45.50
2018-04-27T13:38:50.031Z,45.50
2018-04-27T13:41:53.916Z,45.50
2018-04-27T13:44:57.732Z,45.70
2018-04-27T13:48:01.660Z,45.80
2018-04-27T13:51:05.739Z,45.80
2018-04-27T13:54:10.346Z,45.80
2018-04-27T13:57:14.262Z,45.80
2018-04-27T14:00:19.980Z,45.80
2018-04-27T14:03:23.811Z,45.80
2018-04-27T14:06:28.464Z,46.00
2018-04-27T14:09:36.258Z,46.10
2018-04-27T14:12:40.897Z,46.00
2018-04-27T14:15:46.351Z,46.40
2018-04-27T14:18:50.955Z,46.60
2018-04-27T14:21:54.795Z,46.50
2018-04-27T14:24:58.634Z,46.40
2018-04-27T14:28:02.483Z,46.40
2018-04-27T14:31:07.059Z,46.30
2018-04-27T14:34:10.916Z,46.30
2018-04-27T14:37:14.791Z,46.40
2018-04-27T14:40:18.623Z,46.50
2018-04-27T14:43:22.475Z,46.50
2018-04-27T14:46:26.325Z,46.60
2018-04-27T14:49:30.143Z,46.60
2018-04-27T14:52:34.303Z,46.60
2018-04-27T14:55:38.125Z,46.60
2018-04-27T14:58:42.751Z,47.00
2018-04-27T15:01:46.636Z,46.90
2018-04-27T15:04:50.505Z,46.80
2018-04-27T15:07:54.491Z,46.90
2018-04-27T15:11:20.109Z,47.10
2018-04-27T15:14:23.950Z,46.90
2018-04-27T15:17:27.804Z,47.10
2018-04-27T15:20:31.631Z,47.00
2018-04-27T15:23:35.485Z,47.00
2018-04-27T15:26:40.083Z,47.10
2018-04-27T15:29:43.912Z,47.00
2018-04-27T15:32:47.769Z,47.00
2018-04-27T15:35:52.324Z,47.70
2018-04-27T15:38:56.910Z,47.20
2018-04-27T15:42:00.819Z,47.10
2018-04-27T15:45:04.654Z,47.20
2018-04-27T15:48:08.540Z,47.40
2018-04-27T15:51:13.106Z,48.00
2018-04-27T15:54:16.949Z,47.90
2018-04-27T15:57:20.857Z,47.30
2018-04-27T16:00:25.443Z,46.90
2018-04-27T16:03:29.295Z,46.80
2018-04-27T16:06:33.857Z,46.90
2018-04-27T16:09:37.777Z,46.80
2018-04-27T16:12:41.687Z,46.80
2018-04-27T16:15:46.263Z,47.00
2018-04-27T16:18:50.149Z,46.90
2018-04-27T16:21:54.039Z,46.90
2018-04-27T16:24:57.934Z,47.50
2018-04-27T16:28:01.832Z,46.80
2018-04-27T16:31:06.470Z,47.40
2018-04-27T16:34:10.354Z,47.30
2018-04-27T16:37:14.181Z,47.20
2018-04-27T16:40:34.620Z,46.80
2018-04-27T16:43:38.452Z,46.90
2018-04-27T16:46:42.309Z,46.90
2018-04-27T16:49:46.236Z,47.00
2018-04-27T16:52:50.075Z,47.00
2018-04-27T16:55:53.940Z,47.10
2018-04-27T16:58:57.839Z,47.00
2018-04-27T17:02:01.683Z,46.90
2018-04-27T17:05:05.561Z,46.80
2018-04-27T17:08:09.454Z,46.80
2018-04-27T17:11:14.112Z,46.80
2018-04-27T17:14:19.011Z,46.70
2018-04-27T17:17:23.405Z,46.60
2018-04-27T17:20:28.023Z,46.50
2018-04-27T17:23:52.779Z,46.40
2018-04-27T17:26:56.695Z,46.60
2018-04-27T17:30:02.511Z,46.50
2018-04-27T17:33:06.424Z,46.40
2018-04-27T17:36:10.301Z,46.30
2018-04-27T17:39:14.181Z,46.40
2018-04-27T17:42:18.074Z,46.30
2018-04-27T17:45:22.713Z,46.30
2018-04-27T17:48:27.337Z,46.30
2018-04-27T17:51:31.193Z,46.30
2018-04-27T17:54:35.093Z,46.30
2018-04-27T17:57:39.611Z,46.30
2018-04-27T18:00:43.483Z,46.20
2018-04-27T18:03:48.083Z,46.20
2018-04-27T18:06:51.923Z,46.10
2018-04-27T18:09:55.804Z,46.20
2018-04-27T18:12:59.631Z,46.20
2018-04-27T18:16:03.502Z,46.10
2018-04-27T18:19:07.523Z,46.00
2018-04-27T18:22:19.794Z,46.10
2018-04-27T18:25:23.680Z,46.20
2018-04-27T18:28:28.324Z,46.00
2018-04-27T18:31:32.191Z,45.90
2018-04-27T18:34:36.070Z,45.90
2018-04-27T18:37:39.895Z,46.00
2018-04-27T18:40:43.754Z,46.10
2018-04-27T18:43:47.585Z,46.20
2018-04-27T18:46:51.437Z,45.90
2018-04-27T18:49:55.268Z,45.90
2018-04-27T18:52:59.118Z,45.90
2018-04-27T18:56:04.788Z,45.90
2018-04-27T18:59:08.652Z,45.90
2018-04-27T19:02:12.547Z,45.80
2018-04-27T19:05:16.809Z,45.80
2018-04-27T19:08:21.430Z,45.80
2018-04-27T19:11:25.295Z,45.80
2018-04-27T19:14:29.187Z,46.50
2018-04-27T19:17:33.794Z,45.80
2018-04-27T19:20:40.013Z,45.80
2018-04-27T19:23:43.864Z,45.80
2018-04-27T19:26:48.507Z,45.90
2018-04-27T19:29:53.126Z,45.80
2018-04-27T19:32:57.727Z,45.80
2018-04-27T19:36:01.625Z,45.70
2018-04-27T19:39:12.509Z,45.70
2018-04-27T19:42:17.101Z,45.80
2018-04-27T19:45:20.980Z,45.60
2018-04-27T19:48:25.658Z,45.90
2018-04-27T19:51:29.531Z,45.80
2018-04-27T19:54:33.401Z,45.90
2018-04-27T19:57:38.077Z,45.90
2018-04-27T20:00:42.092Z,45.90
2018-04-27T20:03:45.960Z,46.00
2018-04-27T20:06:49.835Z,46.00
2018-04-27T20:09:55.923Z,46.00
2018-04-27T20:13:00.645Z,46.10
2018-04-27T20:16:04.537Z,46.20
2018-04-27T20:19:09.118Z,46.10
2018-04-27T20:22:21.750Z,46.10
2018-04-27T20:25:26.656Z,46.20
2018-04-27T20:28:31.236Z,46.20
2018-04-27T20:31:35.259Z,46.10
2018-04-27T20:34:39.901Z,46.20
2018-04-27T20:38:01.295Z,46.20
2018-04-27T20:41:09.739Z,46.10
2018-04-27T20:44:14.314Z,46.30
2018-04-27T20:47:21.526Z,46.20
2018-04-27T20:50:28.046Z,46.20
2018-04-27T20:54:00.514Z,46.30
2018-04-27T20:57:05.160Z,46.30
2018-04-27T21:00:09.307Z,46.30
2018-04-27T21:03:13.175Z,46.30
2018-04-27T21:06:17.857Z,46.30
2018-04-27T21:09:22.436Z,46.20
2018-04-27T21:12:34.424Z,46.20
2018-04-27T21:15:38.320Z,46.20
2018-04-27T21:18:42.196Z,46.20
2018-04-27T21:21:46.087Z,46.20
2018-04-27T21:24:50.763Z,46.20
2018-04-27T21:27:54.629Z,46.20
2018-04-27T21:30:58.477Z,46.20
2018-04-27T21:34:03.024Z,46.20
2018-04-27T21:37:06.948Z,46.20
2018-04-27T21:40:11.555Z,46.20
2018-04-27T21:43:15.381Z,46.10
2018-04-27T21:46:25.363Z,46.20
2018-04-27T21:49:29.175Z,46.20
2018-04-27T21:52:44.672Z,46.20
2018-04-27T21:55:48.507Z,46.20
2018-04-27T21:58:54.011Z,46.20
2018-04-27T22:01:57.857Z,46.30
2018-04-27T22:05:11.110Z,46.20
2018-04-27T22:12:05.841Z,46.20
2018-04-27T22:15:10.565Z,46.30
2018-04-27T22:18:15.132Z,46.30
2018-04-27T22:21:18.968Z,46.20
2018-04-27T22:24:32.468Z,46.30
2018-04-27T22:27:36.324Z,46.30
2018-04-27T22:30:44.392Z,46.30
2018-04-27T22:33:48.968Z,46.30
2018-04-27T22:36:52.817Z,46.30
2018-04-27T22:40:14.512Z,46.30
2018-04-27T22:43:20.751Z,46.30
2018-04-27T22:46:24.549Z,46.20
2018-04-27T22:49:28.377Z,46.20
2018-04-27T22:52:35.552Z,46.20
2018-04-27T22:55:40.183Z,46.30
2018-04-27T22:58:44.754Z,46.20
2018-04-27T23:01:48.562Z,46.20
2018-04-27T23:04:59.414Z,46.30
2018-04-27T23:08:04.865Z,46.20
2018-04-27T23:11:13.668Z,46.30
2018-04-27T23:14:27.253Z,46.30
2018-04-27T23:17:31.105Z,46.30
2018-04-27T23:20:34.964Z,46.30
2018-04-27T23:23:38.881Z,46.40
2018-04-27T23:26:42.688Z,46.40
2018-04-27T23:29:46.511Z,46.40
2018-04-27T23:32:50.356Z,46.40
2018-04-27T23:35:55.978Z,46.40
2018-04-27T23:39:00.551Z,46.40
2018-04-27T23:42:04.351Z,46.30
2018-04-27T23:45:09.570Z,47.00
2018-04-27T23:48:13.460Z,46.90
2018-04-27T23:51:17.269Z,46.90
2018-04-27T23:54:21.842Z,47.20
2018-04-27T23:57:25.649Z,47.10
